Walhalla, Texas
Current Conditions -  °F | °C
As of 2:15 AM on Saturday 29 Nov 2014 (Local Time) from K3T5 Reporting Station
Clear Clear  
Wind Chill: 59°   Ceiling: Unl
Heat Index: 59°   Visibility: 10mi
Dew Point: 57°   Wind: 7mph
Humidity: 96%   Direction: 190°S
Pressure: 30.07"   Gusts: NA
Location:  30.0519°N, 96.7569°W
Report Text: K3T5 290815Z AUTO 19006KT 10SM CLR 15/14 A3007 RMK AO2 T01480141
Loading
Personal Weather Stations






























Interactive Weather Map New forecast layout! Learn more

10-Day Weather Forecast

Advertisements
Track Severe Weather on mobile